<?xml version="1.0" encoding="UTF-8" standalone="no" ?>
<gpx xmlns="http://www.topografix.com/GPX/1/1" xmlns:xsi="http://www.w3.org/2001/XMLSchema-instance" xsi:schemaLocation="http://www.topografix.com/GPX/1/1 http://www.topografix.com/GPX/1/1/gpx.xsd" version="1.1" creator="VisuGPX - https://www.visugpx.com">
  <metadata>
    <name>Nort_PetitCanal</name>
    <desc><![CDATA[M1 le 17/09/24 11km]]></desc>
  </metadata>
  <trk>
    <name><![CDATA[2024-09-17 Nort_PetitCanal_11km]]></name>
    <desc><![CDATA[<p>Heure de départ: 09/17/2024 09:01<br/>Heure d'arrivée: 09/17/2024 12:02<br/>Distance: 11,8 km (03:00)<br/>Temps déplacement: 02:25<br/>Vitesse moyenne: 3,9 km/h<br/>Vitesse moyenne mouv.: 4,84 km/h<br/>Vitesse Max.: 7,36 km/h<br/>Altitude minimale: 10 m<br/>Altitude maximale: 28 m<br/>Vitesse de montée: 84,4 m/h<br/>Vitesse de descente: -71,2 m/h<br/>Gain d'altitude: 89 m<br/>Perte d'altitude: -90 m<br/>Temps de montée: 01:03<br/>Temps de descente: 01:15<br/></p><hr align="center" width="480" style="height: 2px; width: 517px"/>]]></desc>
    <extensions>
      <line xmlns="http://www.topografix.com/GPX/gpx_style/0/2">
        <color>0000FF</color>
        <opacity>0.6</opacity>
        <width>6</width>
      </line>
    </extensions>
    <trkseg>
      <trkpt lat="47.43762" lon="-1.50103">
        <ele>14</ele>
        <time>2024-09-17T07:01:53Z</time>
        <extensions>
          <visugpx:TrkExtension xmlns:visugpx="https://www.visugpx.com/editgpx/">
            <visugpx:node>1</visugpx:node>
            </visugpx:TrkExtension>
        </extensions>
      </trkpt>
      <trkpt lat="47.43772" lon="-1.50127">
        <ele>14</ele>
        <time>2024-09-17T07:02:27Z</time>
      </trkpt>
      <trkpt lat="47.43782" lon="-1.50152">
        <ele>14</ele>
        <time>2024-09-17T07:02:55Z</time>
      </trkpt>
      <trkpt lat="47.43781" lon="-1.50184">
        <ele>14</ele>
        <time>2024-09-17T07:03:11Z</time>
      </trkpt>
      <trkpt lat="47.43779" lon="-1.50213">
        <ele>14</ele>
        <time>2024-09-17T07:03:27Z</time>
      </trkpt>
      <trkpt lat="47.43767" lon="-1.50239">
        <ele>14</ele>
        <time>2024-09-17T07:03:47Z</time>
      </trkpt>
      <trkpt lat="47.43761" lon="-1.50268">
        <ele>14.97</ele>
        <time>2024-09-17T07:04:03Z</time>
      </trkpt>
      <trkpt lat="47.43755" lon="-1.50296">
        <ele>15</ele>
        <time>2024-09-17T07:04:15Z</time>
      </trkpt>
      <trkpt lat="47.43754" lon="-1.50325">
        <ele>15</ele>
        <time>2024-09-17T07:04:35Z</time>
      </trkpt>
      <trkpt lat="47.43745" lon="-1.50354">
        <ele>14.03</ele>
        <time>2024-09-17T07:04:47Z</time>
      </trkpt>
      <trkpt lat="47.43731" lon="-1.50375">
        <ele>14</ele>
        <time>2024-09-17T07:05:07Z</time>
      </trkpt>
      <trkpt lat="47.43724" lon="-1.50403">
        <ele>14</ele>
        <time>2024-09-17T07:05:23Z</time>
      </trkpt>
      <trkpt lat="47.43738" lon="-1.50421">
        <ele>11.9</ele>
        <time>2024-09-17T07:05:39Z</time>
      </trkpt>
      <trkpt lat="47.43753" lon="-1.50437">
        <ele>13.82</ele>
        <time>2024-09-17T07:05:51Z</time>
      </trkpt>
      <trkpt lat="47.43765" lon="-1.50464">
        <ele>14.99</ele>
        <time>2024-09-17T07:06:07Z</time>
      </trkpt>
      <trkpt lat="47.43772" lon="-1.50489">
        <ele>15</ele>
        <time>2024-09-17T07:06:23Z</time>
      </trkpt>
      <trkpt lat="47.4379" lon="-1.50506">
        <ele>14.09</ele>
        <time>2024-09-17T07:06:43Z</time>
      </trkpt>
      <trkpt lat="47.43798" lon="-1.50534">
        <ele>14</ele>
        <time>2024-09-17T07:06:59Z</time>
      </trkpt>
      <trkpt lat="47.43806" lon="-1.50562">
        <ele>14</ele>
        <time>2024-09-17T07:07:15Z</time>
      </trkpt>
      <trkpt lat="47.43817" lon="-1.50586">
        <ele>11.9</ele>
        <time>2024-09-17T07:07:31Z</time>
      </trkpt>
      <trkpt lat="47.43829" lon="-1.50609">
        <ele>11.01</ele>
        <time>2024-09-17T07:07:47Z</time>
      </trkpt>
      <trkpt lat="47.43843" lon="-1.50634">
        <ele>11</ele>
        <time>2024-09-17T07:08:03Z</time>
      </trkpt>
      <trkpt lat="47.43858" lon="-1.50651">
        <ele>11</ele>
        <time>2024-09-17T07:08:20Z</time>
      </trkpt>
      <trkpt lat="47.43877" lon="-1.50648">
        <ele>11</ele>
        <time>2024-09-17T07:08:41Z</time>
      </trkpt>
      <trkpt lat="47.43896" lon="-1.50644">
        <ele>11</ele>
        <time>2024-09-17T07:08:57Z</time>
      </trkpt>
      <trkpt lat="47.43916" lon="-1.50634">
        <ele>11</ele>
        <time>2024-09-17T07:09:10Z</time>
      </trkpt>
      <trkpt lat="47.43934" lon="-1.5062">
        <ele>11.97</ele>
        <time>2024-09-17T07:09:23Z</time>
      </trkpt>
      <trkpt lat="47.43952" lon="-1.50607">
        <ele>12</ele>
        <time>2024-09-17T07:09:39Z</time>
      </trkpt>
      <trkpt lat="47.4397" lon="-1.50599">
        <ele>12</ele>
        <time>2024-09-17T07:09:55Z</time>
      </trkpt>
      <trkpt lat="47.4399" lon="-1.50589">
        <ele>12</ele>
        <time>2024-09-17T07:10:11Z</time>
      </trkpt>
      <trkpt lat="47.44008" lon="-1.50593">
        <ele>11.09</ele>
        <time>2024-09-17T07:10:27Z</time>
      </trkpt>
      <trkpt lat="47.44029" lon="-1.50598">
        <ele>11</ele>
        <time>2024-09-17T07:10:47Z</time>
      </trkpt>
      <trkpt lat="47.4405" lon="-1.50588">
        <ele>11</ele>
        <time>2024-09-17T07:11:03Z</time>
      </trkpt>
      <trkpt lat="47.4406" lon="-1.50615">
        <ele>11</ele>
        <time>2024-09-17T07:11:23Z</time>
      </trkpt>
      <trkpt lat="47.44059" lon="-1.50647">
        <ele>11</ele>
        <time>2024-09-17T07:11:43Z</time>
      </trkpt>
      <trkpt lat="47.44078" lon="-1.50653">
        <ele>11</ele>
        <time>2024-09-17T07:12:11Z</time>
      </trkpt>
      <trkpt lat="47.44063" lon="-1.50672">
        <ele>13.1</ele>
        <time>2024-09-17T07:12:43Z</time>
      </trkpt>
      <trkpt lat="47.44054" lon="-1.50699">
        <ele>13.99</ele>
        <time>2024-09-17T07:12:59Z</time>
      </trkpt>
      <trkpt lat="47.44047" lon="-1.50726">
        <ele>14</ele>
        <time>2024-09-17T07:13:15Z</time>
      </trkpt>
      <trkpt lat="47.44038" lon="-1.50757">
        <ele>15.4</ele>
        <time>2024-09-17T07:13:35Z</time>
      </trkpt>
      <trkpt lat="47.4404" lon="-1.50784">
        <ele>16</ele>
        <time>2024-09-17T07:13:55Z</time>
      </trkpt>
      <trkpt lat="47.44049" lon="-1.50809">
        <ele>16</ele>
        <time>2024-09-17T07:14:11Z</time>
      </trkpt>
      <trkpt lat="47.44058" lon="-1.50836">
        <ele>16.7</ele>
        <time>2024-09-17T07:14:27Z</time>
      </trkpt>
      <trkpt lat="47.44067" lon="-1.50865">
        <ele>17</ele>
        <time>2024-09-17T07:14:43Z</time>
      </trkpt>
      <trkpt lat="47.44074" lon="-1.50894">
        <ele>17</ele>
        <time>2024-09-17T07:14:59Z</time>
      </trkpt>
      <trkpt lat="47.44081" lon="-1.5092">
        <ele>16.3</ele>
        <time>2024-09-17T07:15:15Z</time>
      </trkpt>
      <trkpt lat="47.44084" lon="-1.50948">
        <ele>16.91</ele>
        <time>2024-09-17T07:15:35Z</time>
      </trkpt>
      <trkpt lat="47.44089" lon="-1.51072">
        <ele>17</ele>
        <time>2024-09-17T07:16:39Z</time>
      </trkpt>
      <trkpt lat="47.44105" lon="-1.51166">
        <ele>17</ele>
        <time>2024-09-17T07:17:31Z</time>
      </trkpt>
      <trkpt lat="47.44113" lon="-1.51196">
        <ele>16.01</ele>
        <time>2024-09-17T07:17:47Z</time>
      </trkpt>
      <trkpt lat="47.44119" lon="-1.51223">
        <ele>16</ele>
        <time>2024-09-17T07:18:03Z</time>
      </trkpt>
      <trkpt lat="47.44126" lon="-1.51253">
        <ele>16</ele>
        <time>2024-09-17T07:18:19Z</time>
      </trkpt>
      <trkpt lat="47.44131" lon="-1.51282">
        <ele>16</ele>
        <time>2024-09-17T07:18:35Z</time>
      </trkpt>
      <trkpt lat="47.44132" lon="-1.51313">
        <ele>16</ele>
        <time>2024-09-17T07:18:55Z</time>
      </trkpt>
      <trkpt lat="47.44135" lon="-1.5134">
        <ele>16</ele>
        <time>2024-09-17T07:19:15Z</time>
      </trkpt>
      <trkpt lat="47.44133" lon="-1.5137">
        <ele>16</ele>
        <time>2024-09-17T07:19:35Z</time>
      </trkpt>
      <trkpt lat="47.44135" lon="-1.514">
        <ele>16</ele>
        <time>2024-09-17T07:19:55Z</time>
      </trkpt>
      <trkpt lat="47.44136" lon="-1.51427">
        <ele>14.18</ele>
        <time>2024-09-17T07:20:11Z</time>
      </trkpt>
      <trkpt lat="47.4414" lon="-1.51457">
        <ele>14</ele>
        <time>2024-09-17T07:20:27Z</time>
      </trkpt>
      <trkpt lat="47.44142" lon="-1.51485">
        <ele>14</ele>
        <time>2024-09-17T07:20:43Z</time>
      </trkpt>
      <trkpt lat="47.44144" lon="-1.51517">
        <ele>14.97</ele>
        <time>2024-09-17T07:21:03Z</time>
      </trkpt>
      <trkpt lat="47.44142" lon="-1.51547">
        <ele>15</ele>
        <time>2024-09-17T07:21:19Z</time>
      </trkpt>
      <trkpt lat="47.4414" lon="-1.51578">
        <ele>15</ele>
        <time>2024-09-17T07:21:35Z</time>
      </trkpt>
      <trkpt lat="47.44138" lon="-1.51607">
        <ele>14.01</ele>
        <time>2024-09-17T07:21:51Z</time>
      </trkpt>
      <trkpt lat="47.44131" lon="-1.51638">
        <ele>14</ele>
        <time>2024-09-17T07:22:11Z</time>
      </trkpt>
      <trkpt lat="47.44121" lon="-1.51664">
        <ele>14</ele>
        <time>2024-09-17T07:22:27Z</time>
      </trkpt>
      <trkpt lat="47.44112" lon="-1.5169">
        <ele>13.01</ele>
        <time>2024-09-17T07:22:43Z</time>
      </trkpt>
      <trkpt lat="47.44101" lon="-1.51712">
        <ele>13</ele>
        <time>2024-09-17T07:23:07Z</time>
      </trkpt>
      <trkpt lat="47.44098" lon="-1.51783">
        <ele>15.5</ele>
        <time>2024-09-17T07:23:27Z</time>
      </trkpt>
      <trkpt lat="47.44074" lon="-1.51852">
        <ele>15.9</ele>
        <time>2024-09-17T07:23:43Z</time>
      </trkpt>
      <trkpt lat="47.44008" lon="-1.5186">
        <ele>15</ele>
      </trkpt>
      <trkpt lat="47.44069" lon="-1.52285">
        <ele>16.5</ele>
      </trkpt>
      <trkpt lat="47.44135" lon="-1.5262">
        <ele>16</ele>
      </trkpt>
      <trkpt lat="47.44136" lon="-1.52879">
        <ele>11</ele>
        <time>2024-09-17T07:41:15Z</time>
      </trkpt>
      <trkpt lat="47.44151" lon="-1.52902">
        <ele>11</ele>
        <time>2024-09-17T07:41:31Z</time>
      </trkpt>
      <trkpt lat="47.44164" lon="-1.52925">
        <ele>10.09</ele>
        <time>2024-09-17T07:41:47Z</time>
      </trkpt>
      <trkpt lat="47.44179" lon="-1.52947">
        <ele>10</ele>
        <time>2024-09-17T07:42:03Z</time>
      </trkpt>
      <trkpt lat="47.44194" lon="-1.52968">
        <ele>10</ele>
        <time>2024-09-17T07:42:19Z</time>
      </trkpt>
      <trkpt lat="47.44211" lon="-1.52977">
        <ele>10</ele>
        <time>2024-09-17T07:42:35Z</time>
      </trkpt>
      <trkpt lat="47.44231" lon="-1.52964">
        <ele>10</ele>
        <time>2024-09-17T07:42:55Z</time>
      </trkpt>
      <trkpt lat="47.44248" lon="-1.52952">
        <ele>10</ele>
        <time>2024-09-17T07:43:11Z</time>
      </trkpt>
      <trkpt lat="47.44267" lon="-1.52936">
        <ele>11</ele>
        <time>2024-09-17T07:43:31Z</time>
      </trkpt>
      <trkpt lat="47.44287" lon="-1.52921">
        <ele>11</ele>
        <time>2024-09-17T07:43:47Z</time>
      </trkpt>
      <trkpt lat="47.44305" lon="-1.52909">
        <ele>10.03</ele>
        <time>2024-09-17T07:44:03Z</time>
      </trkpt>
      <trkpt lat="47.44325" lon="-1.52905">
        <ele>10</ele>
        <time>2024-09-17T07:44:19Z</time>
      </trkpt>
      <trkpt lat="47.44345" lon="-1.52916">
        <ele>11.95</ele>
        <time>2024-09-17T07:44:51Z</time>
      </trkpt>
      <trkpt lat="47.44361" lon="-1.52933">
        <ele>12</ele>
        <time>2024-09-17T07:45:35Z</time>
      </trkpt>
      <trkpt lat="47.44376" lon="-1.52947">
        <ele>12</ele>
        <time>2024-09-17T07:45:51Z</time>
      </trkpt>
      <trkpt lat="47.44395" lon="-1.52966">
        <ele>12</ele>
        <time>2024-09-17T07:46:11Z</time>
      </trkpt>
      <trkpt lat="47.44408" lon="-1.52986">
        <ele>12</ele>
        <time>2024-09-17T07:46:27Z</time>
      </trkpt>
      <trkpt lat="47.44423" lon="-1.53002">
        <ele>12</ele>
        <time>2024-09-17T07:46:43Z</time>
      </trkpt>
      <trkpt lat="47.44431" lon="-1.53027">
        <ele>12</ele>
        <time>2024-09-17T07:46:59Z</time>
      </trkpt>
      <trkpt lat="47.44442" lon="-1.53053">
        <ele>12</ele>
        <time>2024-09-17T07:47:35Z</time>
      </trkpt>
      <trkpt lat="47.44453" lon="-1.5308">
        <ele>12</ele>
        <time>2024-09-17T07:47:51Z</time>
      </trkpt>
      <trkpt lat="47.44463" lon="-1.53105">
        <ele>13.98</ele>
        <time>2024-09-17T07:48:07Z</time>
      </trkpt>
      <trkpt lat="47.44479" lon="-1.53128">
        <ele>14</ele>
        <time>2024-09-17T07:48:27Z</time>
      </trkpt>
      <trkpt lat="47.4449" lon="-1.53152">
        <ele>14</ele>
        <time>2024-09-17T07:48:43Z</time>
      </trkpt>
      <trkpt lat="47.44503" lon="-1.5317">
        <ele>14</ele>
        <time>2024-09-17T07:48:59Z</time>
      </trkpt>
      <trkpt lat="47.44517" lon="-1.53187">
        <ele>14</ele>
        <time>2024-09-17T07:49:15Z</time>
      </trkpt>
      <trkpt lat="47.44533" lon="-1.53205">
        <ele>14</ele>
        <time>2024-09-17T07:49:31Z</time>
      </trkpt>
      <trkpt lat="47.44546" lon="-1.53224">
        <ele>14</ele>
        <time>2024-09-17T07:49:47Z</time>
      </trkpt>
      <trkpt lat="47.44561" lon="-1.53247">
        <ele>14</ele>
        <time>2024-09-17T07:50:07Z</time>
      </trkpt>
      <trkpt lat="47.44575" lon="-1.53273">
        <ele>13</ele>
        <time>2024-09-17T07:50:27Z</time>
      </trkpt>
      <trkpt lat="47.44588" lon="-1.53294">
        <ele>16.64</ele>
        <time>2024-09-17T07:50:43Z</time>
      </trkpt>
      <trkpt lat="47.44603" lon="-1.53311">
        <ele>17</ele>
        <time>2024-09-17T07:50:59Z</time>
      </trkpt>
      <trkpt lat="47.44623" lon="-1.5332">
        <ele>17</ele>
        <time>2024-09-17T07:51:19Z</time>
      </trkpt>
      <trkpt lat="47.44642" lon="-1.53322">
        <ele>17</ele>
        <time>2024-09-17T07:51:35Z</time>
      </trkpt>
      <trkpt lat="47.44664" lon="-1.53322">
        <ele>17</ele>
        <time>2024-09-17T07:51:55Z</time>
      </trkpt>
      <trkpt lat="47.44682" lon="-1.53326">
        <ele>21.96</ele>
        <time>2024-09-17T07:52:11Z</time>
      </trkpt>
      <trkpt lat="47.447" lon="-1.53318">
        <ele>22</ele>
        <time>2024-09-17T07:52:27Z</time>
      </trkpt>
      <trkpt lat="47.44718" lon="-1.53312">
        <ele>22</ele>
        <time>2024-09-17T07:52:47Z</time>
      </trkpt>
      <trkpt lat="47.44734" lon="-1.53296">
        <ele>22</ele>
        <time>2024-09-17T07:53:03Z</time>
      </trkpt>
      <trkpt lat="47.4474" lon="-1.53267">
        <ele>22</ele>
        <time>2024-09-17T07:53:43Z</time>
      </trkpt>
      <trkpt lat="47.44737" lon="-1.53234">
        <ele>22.97</ele>
        <time>2024-09-17T07:54:11Z</time>
      </trkpt>
      <trkpt lat="47.44735" lon="-1.53204">
        <ele>23</ele>
        <time>2024-09-17T07:54:27Z</time>
      </trkpt>
      <trkpt lat="47.44734" lon="-1.53174">
        <ele>23</ele>
        <time>2024-09-17T07:54:47Z</time>
      </trkpt>
      <trkpt lat="47.44732" lon="-1.53147">
        <ele>21.02</ele>
        <time>2024-09-17T07:55:03Z</time>
      </trkpt>
      <trkpt lat="47.44729" lon="-1.53119">
        <ele>21</ele>
        <time>2024-09-17T07:55:19Z</time>
      </trkpt>
      <trkpt lat="47.44722" lon="-1.53091">
        <ele>21</ele>
        <time>2024-09-17T07:55:35Z</time>
      </trkpt>
      <trkpt lat="47.44714" lon="-1.53062">
        <ele>21.99</ele>
        <time>2024-09-17T07:55:55Z</time>
      </trkpt>
      <trkpt lat="47.44709" lon="-1.53036">
        <ele>22</ele>
        <time>2024-09-17T07:56:11Z</time>
      </trkpt>
      <trkpt lat="47.44703" lon="-1.53007">
        <ele>22</ele>
        <time>2024-09-17T07:56:31Z</time>
      </trkpt>
      <trkpt lat="47.44699" lon="-1.52977">
        <ele>22</ele>
        <time>2024-09-17T07:56:47Z</time>
      </trkpt>
      <trkpt lat="47.44697" lon="-1.52948">
        <ele>22</ele>
        <time>2024-09-17T07:57:03Z</time>
      </trkpt>
      <trkpt lat="47.44693" lon="-1.52917">
        <ele>21.3</ele>
        <time>2024-09-17T07:57:23Z</time>
      </trkpt>
      <trkpt lat="47.44689" lon="-1.5289">
        <ele>21</ele>
        <time>2024-09-17T07:57:39Z</time>
      </trkpt>
      <trkpt lat="47.44682" lon="-1.52864">
        <ele>21</ele>
        <time>2024-09-17T07:57:55Z</time>
      </trkpt>
      <trkpt lat="47.44672" lon="-1.52836">
        <ele>21</ele>
        <time>2024-09-17T07:58:15Z</time>
      </trkpt>
      <trkpt lat="47.44661" lon="-1.52804">
        <ele>21.12</ele>
        <time>2024-09-17T07:58:35Z</time>
      </trkpt>
      <trkpt lat="47.44653" lon="-1.52779">
        <ele>21</ele>
        <time>2024-09-17T07:58:51Z</time>
      </trkpt>
      <trkpt lat="47.44649" lon="-1.52748">
        <ele>20.3</ele>
        <time>2024-09-17T07:59:11Z</time>
      </trkpt>
      <trkpt lat="47.44646" lon="-1.52716">
        <ele>20</ele>
        <time>2024-09-17T07:59:31Z</time>
      </trkpt>
      <trkpt lat="47.44643" lon="-1.52687">
        <ele>20</ele>
        <time>2024-09-17T07:59:47Z</time>
      </trkpt>
      <trkpt lat="47.4464" lon="-1.5266">
        <ele>19.3</ele>
        <time>2024-09-17T08:00:03Z</time>
      </trkpt>
      <trkpt lat="47.44635" lon="-1.52633">
        <ele>19</ele>
        <time>2024-09-17T08:00:19Z</time>
      </trkpt>
      <trkpt lat="47.44631" lon="-1.52603">
        <ele>19</ele>
        <time>2024-09-17T08:00:35Z</time>
      </trkpt>
      <trkpt lat="47.4463" lon="-1.52573">
        <ele>20.82</ele>
        <time>2024-09-17T08:00:55Z</time>
      </trkpt>
      <trkpt lat="47.4463" lon="-1.52545">
        <ele>21</ele>
        <time>2024-09-17T08:01:15Z</time>
      </trkpt>
      <trkpt lat="47.44629" lon="-1.52517">
        <ele>21</ele>
        <time>2024-09-17T08:01:31Z</time>
      </trkpt>
      <trkpt lat="47.44619" lon="-1.52493">
        <ele>22.82</ele>
        <time>2024-09-17T08:01:47Z</time>
      </trkpt>
      <trkpt lat="47.44614" lon="-1.52463">
        <ele>23</ele>
        <time>2024-09-17T08:02:07Z</time>
      </trkpt>
      <trkpt lat="47.44615" lon="-1.52436">
        <ele>23</ele>
        <time>2024-09-17T08:02:23Z</time>
      </trkpt>
      <trkpt lat="47.44618" lon="-1.52404">
        <ele>22.03</ele>
        <time>2024-09-17T08:02:43Z</time>
      </trkpt>
      <trkpt lat="47.44624" lon="-1.52377">
        <ele>22</ele>
        <time>2024-09-17T08:02:59Z</time>
      </trkpt>
      <trkpt lat="47.44618" lon="-1.52344">
        <ele>22</ele>
        <time>2024-09-17T08:03:19Z</time>
      </trkpt>
      <trkpt lat="47.44609" lon="-1.52319">
        <ele>22</ele>
        <time>2024-09-17T08:03:39Z</time>
      </trkpt>
      <trkpt lat="47.44604" lon="-1.5229">
        <ele>22</ele>
        <time>2024-09-17T08:04:55Z</time>
      </trkpt>
      <trkpt lat="47.44592" lon="-1.52267">
        <ele>22</ele>
        <time>2024-09-17T08:05:19Z</time>
      </trkpt>
      <trkpt lat="47.44579" lon="-1.52248">
        <ele>20.7</ele>
        <time>2024-09-17T08:06:47Z</time>
      </trkpt>
      <trkpt lat="47.44569" lon="-1.52226">
        <ele>21</ele>
        <time>2024-09-17T08:07:03Z</time>
      </trkpt>
      <trkpt lat="47.44557" lon="-1.52197">
        <ele>21</ele>
        <time>2024-09-17T08:07:23Z</time>
      </trkpt>
      <trkpt lat="47.44547" lon="-1.52174">
        <ele>21</ele>
        <time>2024-09-17T08:07:39Z</time>
      </trkpt>
      <trkpt lat="47.44537" lon="-1.52151">
        <ele>21</ele>
        <time>2024-09-17T08:07:55Z</time>
      </trkpt>
      <trkpt lat="47.44525" lon="-1.52125">
        <ele>21</ele>
        <time>2024-09-17T08:08:11Z</time>
      </trkpt>
      <trkpt lat="47.44524" lon="-1.52096">
        <ele>21</ele>
        <time>2024-09-17T08:08:31Z</time>
      </trkpt>
      <trkpt lat="47.4452" lon="-1.52068">
        <ele>21.97</ele>
        <time>2024-09-17T08:08:51Z</time>
      </trkpt>
      <trkpt lat="47.4452" lon="-1.52039">
        <ele>22</ele>
        <time>2024-09-17T08:09:11Z</time>
      </trkpt>
      <trkpt lat="47.44524" lon="-1.52008">
        <ele>22</ele>
        <time>2024-09-17T08:09:27Z</time>
      </trkpt>
      <trkpt lat="47.44526" lon="-1.51981">
        <ele>21.01</ele>
        <time>2024-09-17T08:09:43Z</time>
      </trkpt>
      <trkpt lat="47.44533" lon="-1.5195">
        <ele>21</ele>
        <time>2024-09-17T08:09:59Z</time>
      </trkpt>
      <trkpt lat="47.44546" lon="-1.5193">
        <ele>21</ele>
        <time>2024-09-17T08:10:15Z</time>
      </trkpt>
      <trkpt lat="47.44543" lon="-1.51902">
        <ele>19.05</ele>
        <time>2024-09-17T08:10:35Z</time>
      </trkpt>
      <trkpt lat="47.44554" lon="-1.51877">
        <ele>19</ele>
        <time>2024-09-17T08:11:27Z</time>
      </trkpt>
      <trkpt lat="47.44564" lon="-1.51853">
        <ele>19</ele>
        <time>2024-09-17T08:11:47Z</time>
      </trkpt>
      <trkpt lat="47.44576" lon="-1.51828">
        <ele>19</ele>
        <time>2024-09-17T08:12:07Z</time>
      </trkpt>
      <trkpt lat="47.44586" lon="-1.518">
        <ele>19.91</ele>
        <time>2024-09-17T08:12:31Z</time>
      </trkpt>
      <trkpt lat="47.44597" lon="-1.51777">
        <ele>20</ele>
        <time>2024-09-17T08:12:47Z</time>
      </trkpt>
      <trkpt lat="47.44607" lon="-1.51753">
        <ele>20</ele>
        <time>2024-09-17T08:13:11Z</time>
      </trkpt>
      <trkpt lat="47.44618" lon="-1.51729">
        <ele>20</ele>
        <time>2024-09-17T08:13:31Z</time>
      </trkpt>
      <trkpt lat="47.44628" lon="-1.51705">
        <ele>20</ele>
        <time>2024-09-17T08:13:47Z</time>
      </trkpt>
      <trkpt lat="47.44641" lon="-1.51679">
        <ele>20</ele>
        <time>2024-09-17T08:14:03Z</time>
      </trkpt>
      <trkpt lat="47.44652" lon="-1.51656">
        <ele>21.95</ele>
        <time>2024-09-17T08:14:23Z</time>
      </trkpt>
      <trkpt lat="47.44665" lon="-1.51628">
        <ele>22</ele>
        <time>2024-09-17T08:14:43Z</time>
      </trkpt>
      <trkpt lat="47.44678" lon="-1.51598">
        <ele>20.02</ele>
        <time>2024-09-17T08:15:03Z</time>
      </trkpt>
      <trkpt lat="47.44689" lon="-1.51574">
        <ele>19.09</ele>
        <time>2024-09-17T08:15:19Z</time>
      </trkpt>
      <trkpt lat="47.44702" lon="-1.51553">
        <ele>19</ele>
        <time>2024-09-17T08:15:35Z</time>
      </trkpt>
      <trkpt lat="47.4472" lon="-1.51539">
        <ele>19</ele>
        <time>2024-09-17T08:15:51Z</time>
      </trkpt>
      <trkpt lat="47.44739" lon="-1.51537">
        <ele>19</ele>
        <time>2024-09-17T08:16:11Z</time>
      </trkpt>
      <trkpt lat="47.44758" lon="-1.51549">
        <ele>21.92</ele>
        <time>2024-09-17T08:16:31Z</time>
      </trkpt>
      <trkpt lat="47.44777" lon="-1.5156">
        <ele>22</ele>
        <time>2024-09-17T08:16:47Z</time>
      </trkpt>
      <trkpt lat="47.44794" lon="-1.51576">
        <ele>22</ele>
        <time>2024-09-17T08:17:07Z</time>
      </trkpt>
      <trkpt lat="47.44811" lon="-1.51586">
        <ele>22</ele>
        <time>2024-09-17T08:17:23Z</time>
      </trkpt>
      <trkpt lat="47.44829" lon="-1.51599">
        <ele>22</ele>
        <time>2024-09-17T08:17:43Z</time>
      </trkpt>
      <trkpt lat="47.44848" lon="-1.51611">
        <ele>20.02</ele>
        <time>2024-09-17T08:18:03Z</time>
      </trkpt>
      <trkpt lat="47.44865" lon="-1.51626">
        <ele>20</ele>
        <time>2024-09-17T08:18:23Z</time>
      </trkpt>
      <trkpt lat="47.44883" lon="-1.51637">
        <ele>20</ele>
        <time>2024-09-17T08:18:39Z</time>
      </trkpt>
      <trkpt lat="47.44902" lon="-1.51652">
        <ele>20</ele>
        <time>2024-09-17T08:18:59Z</time>
      </trkpt>
      <trkpt lat="47.44922" lon="-1.5166">
        <ele>24.55</ele>
        <time>2024-09-17T08:19:19Z</time>
      </trkpt>
      <trkpt lat="47.44939" lon="-1.51645">
        <ele>25</ele>
        <time>2024-09-17T08:19:35Z</time>
      </trkpt>
      <trkpt lat="47.44947" lon="-1.51621">
        <ele>25</ele>
        <time>2024-09-17T08:19:51Z</time>
      </trkpt>
      <trkpt lat="47.44945" lon="-1.51594">
        <ele>25</ele>
        <time>2024-09-17T08:20:07Z</time>
      </trkpt>
      <trkpt lat="47.44946" lon="-1.51562">
        <ele>26.98</ele>
        <time>2024-09-17T08:20:27Z</time>
      </trkpt>
      <trkpt lat="47.44946" lon="-1.51529">
        <ele>27</ele>
        <time>2024-09-17T08:20:47Z</time>
      </trkpt>
      <trkpt lat="47.44945" lon="-1.51501">
        <ele>27</ele>
        <time>2024-09-17T08:21:03Z</time>
      </trkpt>
      <trkpt lat="47.44941" lon="-1.51468">
        <ele>25</ele>
        <time>2024-09-17T08:21:23Z</time>
      </trkpt>
      <trkpt lat="47.44936" lon="-1.51441">
        <ele>25</ele>
        <time>2024-09-17T08:21:39Z</time>
      </trkpt>
      <trkpt lat="47.44931" lon="-1.5141">
        <ele>23.6</ele>
        <time>2024-09-17T08:21:59Z</time>
      </trkpt>
      <trkpt lat="47.44926" lon="-1.51385">
        <ele>23</ele>
        <time>2024-09-17T08:22:15Z</time>
      </trkpt>
      <trkpt lat="47.44921" lon="-1.51354">
        <ele>23</ele>
        <time>2024-09-17T08:22:35Z</time>
      </trkpt>
      <trkpt lat="47.44916" lon="-1.51327">
        <ele>21.6</ele>
        <time>2024-09-17T08:22:51Z</time>
      </trkpt>
      <trkpt lat="47.44912" lon="-1.51298">
        <ele>21</ele>
        <time>2024-09-17T08:23:07Z</time>
      </trkpt>
      <trkpt lat="47.44912" lon="-1.51265">
        <ele>21</ele>
        <time>2024-09-17T08:23:27Z</time>
      </trkpt>
      <trkpt lat="47.44915" lon="-1.51237">
        <ele>21.91</ele>
        <time>2024-09-17T08:23:43Z</time>
      </trkpt>
      <trkpt lat="47.44916" lon="-1.51208">
        <ele>22</ele>
        <time>2024-09-17T08:23:59Z</time>
      </trkpt>
      <trkpt lat="47.44914" lon="-1.51181">
        <ele>22</ele>
        <time>2024-09-17T08:24:59Z</time>
      </trkpt>
      <trkpt lat="47.4492" lon="-1.51153">
        <ele>22.01</ele>
        <time>2024-09-17T08:25:23Z</time>
      </trkpt>
      <trkpt lat="47.44917" lon="-1.51125">
        <ele>22</ele>
        <time>2024-09-17T08:25:55Z</time>
      </trkpt>
      <trkpt lat="47.44928" lon="-1.51102">
        <ele>22</ele>
        <time>2024-09-17T08:38:47Z</time>
      </trkpt>
      <trkpt lat="47.44935" lon="-1.51076">
        <ele>22</ele>
        <time>2024-09-17T08:39:03Z</time>
      </trkpt>
      <trkpt lat="47.44948" lon="-1.51049">
        <ele>22</ele>
        <time>2024-09-17T08:39:27Z</time>
      </trkpt>
      <trkpt lat="47.44963" lon="-1.51032">
        <ele>22</ele>
        <time>2024-09-17T08:39:43Z</time>
      </trkpt>
      <trkpt lat="47.4498" lon="-1.51016">
        <ele>22</ele>
        <time>2024-09-17T08:39:59Z</time>
      </trkpt>
      <trkpt lat="47.44996" lon="-1.51001">
        <ele>22</ele>
        <time>2024-09-17T08:40:15Z</time>
      </trkpt>
      <trkpt lat="47.45012" lon="-1.50986">
        <ele>22</ele>
        <time>2024-09-17T08:40:31Z</time>
      </trkpt>
      <trkpt lat="47.45028" lon="-1.5097">
        <ele>22</ele>
        <time>2024-09-17T08:40:47Z</time>
      </trkpt>
      <trkpt lat="47.45048" lon="-1.50949">
        <ele>22</ele>
        <time>2024-09-17T08:41:07Z</time>
      </trkpt>
      <trkpt lat="47.45069" lon="-1.50931">
        <ele>22</ele>
        <time>2024-09-17T08:41:27Z</time>
      </trkpt>
      <trkpt lat="47.45085" lon="-1.50917">
        <ele>21.3</ele>
        <time>2024-09-17T08:41:43Z</time>
      </trkpt>
      <trkpt lat="47.45102" lon="-1.50899">
        <ele>21.99</ele>
        <time>2024-09-17T08:41:59Z</time>
      </trkpt>
      <trkpt lat="47.45121" lon="-1.50882">
        <ele>22</ele>
        <time>2024-09-17T08:42:19Z</time>
      </trkpt>
      <trkpt lat="47.45139" lon="-1.5087">
        <ele>22</ele>
        <time>2024-09-17T08:42:35Z</time>
      </trkpt>
      <trkpt lat="47.45159" lon="-1.50862">
        <ele>22</ele>
        <time>2024-09-17T08:42:51Z</time>
      </trkpt>
      <trkpt lat="47.45176" lon="-1.50851">
        <ele>22</ele>
        <time>2024-09-17T08:43:07Z</time>
      </trkpt>
      <trkpt lat="47.45186" lon="-1.50826">
        <ele>22.91</ele>
        <time>2024-09-17T08:43:27Z</time>
      </trkpt>
      <trkpt lat="47.45192" lon="-1.50797">
        <ele>23</ele>
        <time>2024-09-17T08:43:43Z</time>
      </trkpt>
      <trkpt lat="47.45183" lon="-1.50767">
        <ele>23</ele>
        <time>2024-09-17T08:44:03Z</time>
      </trkpt>
      <trkpt lat="47.4517" lon="-1.50743">
        <ele>23</ele>
        <time>2024-09-17T08:44:19Z</time>
      </trkpt>
      <trkpt lat="47.45165" lon="-1.50713">
        <ele>22.03</ele>
        <time>2024-09-17T08:44:35Z</time>
      </trkpt>
      <trkpt lat="47.45163" lon="-1.50683">
        <ele>22</ele>
        <time>2024-09-17T08:44:51Z</time>
      </trkpt>
      <trkpt lat="47.45168" lon="-1.50653">
        <ele>22.97</ele>
        <time>2024-09-17T08:45:11Z</time>
      </trkpt>
      <trkpt lat="47.45179" lon="-1.50624">
        <ele>23</ele>
        <time>2024-09-17T08:45:31Z</time>
      </trkpt>
      <trkpt lat="47.45188" lon="-1.50601">
        <ele>23</ele>
        <time>2024-09-17T08:45:47Z</time>
      </trkpt>
      <trkpt lat="47.45201" lon="-1.50582">
        <ele>22.3</ele>
        <time>2024-09-17T08:46:03Z</time>
      </trkpt>
      <trkpt lat="47.45213" lon="-1.50561">
        <ele>22</ele>
        <time>2024-09-17T08:46:19Z</time>
      </trkpt>
      <trkpt lat="47.45233" lon="-1.50566">
        <ele>22</ele>
        <time>2024-09-17T08:46:39Z</time>
      </trkpt>
      <trkpt lat="47.4524" lon="-1.5054">
        <ele>22</ele>
        <time>2024-09-17T08:47:07Z</time>
      </trkpt>
      <trkpt lat="47.4525" lon="-1.50512">
        <ele>22</ele>
        <time>2024-09-17T08:47:27Z</time>
      </trkpt>
      <trkpt lat="47.45256" lon="-1.50482">
        <ele>24</ele>
        <time>2024-09-17T08:47:47Z</time>
      </trkpt>
      <trkpt lat="47.45259" lon="-1.50455">
        <ele>24</ele>
        <time>2024-09-17T08:48:03Z</time>
      </trkpt>
      <trkpt lat="47.45265" lon="-1.50422">
        <ele>24</ele>
        <time>2024-09-17T08:48:19Z</time>
      </trkpt>
      <trkpt lat="47.45272" lon="-1.50397">
        <ele>24</ele>
        <time>2024-09-17T08:48:35Z</time>
      </trkpt>
      <trkpt lat="47.45264" lon="-1.50371">
        <ele>24</ele>
        <time>2024-09-17T08:49:07Z</time>
      </trkpt>
      <trkpt lat="47.45266" lon="-1.50344">
        <ele>24</ele>
        <time>2024-09-17T08:49:35Z</time>
      </trkpt>
      <trkpt lat="47.45262" lon="-1.50316">
        <ele>24</ele>
        <time>2024-09-17T08:51:15Z</time>
      </trkpt>
      <trkpt lat="47.45267" lon="-1.50287">
        <ele>24</ele>
        <time>2024-09-17T08:51:35Z</time>
      </trkpt>
      <trkpt lat="47.45271" lon="-1.50256">
        <ele>24</ele>
        <time>2024-09-17T08:51:51Z</time>
      </trkpt>
      <trkpt lat="47.45278" lon="-1.5023">
        <ele>22.02</ele>
        <time>2024-09-17T08:52:07Z</time>
      </trkpt>
      <trkpt lat="47.45287" lon="-1.50199">
        <ele>22</ele>
        <time>2024-09-17T08:52:27Z</time>
      </trkpt>
      <trkpt lat="47.45298" lon="-1.50178">
        <ele>22</ele>
        <time>2024-09-17T08:52:43Z</time>
      </trkpt>
      <trkpt lat="47.45306" lon="-1.50142">
        <ele>21.01</ele>
        <time>2024-09-17T08:53:03Z</time>
      </trkpt>
      <trkpt lat="47.4531" lon="-1.50109">
        <ele>21</ele>
        <time>2024-09-17T08:53:23Z</time>
      </trkpt>
      <trkpt lat="47.4531" lon="-1.50082">
        <ele>21</ele>
        <time>2024-09-17T08:53:39Z</time>
      </trkpt>
      <trkpt lat="47.45312" lon="-1.50053">
        <ele>21</ele>
        <time>2024-09-17T08:53:55Z</time>
      </trkpt>
      <trkpt lat="47.45313" lon="-1.50024">
        <ele>21</ele>
        <time>2024-09-17T08:54:15Z</time>
      </trkpt>
      <trkpt lat="47.45316" lon="-1.49995">
        <ele>22.82</ele>
        <time>2024-09-17T08:54:47Z</time>
      </trkpt>
      <trkpt lat="47.45327" lon="-1.49973">
        <ele>23</ele>
        <time>2024-09-17T08:55:07Z</time>
      </trkpt>
      <trkpt lat="47.45341" lon="-1.49953">
        <ele>23.91</ele>
        <time>2024-09-17T08:55:23Z</time>
      </trkpt>
      <trkpt lat="47.45357" lon="-1.49934">
        <ele>24</ele>
        <time>2024-09-17T08:55:39Z</time>
      </trkpt>
      <trkpt lat="47.45375" lon="-1.4992">
        <ele>24</ele>
        <time>2024-09-17T08:55:59Z</time>
      </trkpt>
      <trkpt lat="47.45391" lon="-1.49903">
        <ele>24</ele>
        <time>2024-09-17T08:56:19Z</time>
      </trkpt>
      <trkpt lat="47.45406" lon="-1.49885">
        <ele>24</ele>
        <time>2024-09-17T08:56:43Z</time>
      </trkpt>
      <trkpt lat="47.45425" lon="-1.49872">
        <ele>24</ele>
        <time>2024-09-17T08:56:59Z</time>
      </trkpt>
      <trkpt lat="47.45445" lon="-1.49862">
        <ele>24</ele>
        <time>2024-09-17T08:57:15Z</time>
      </trkpt>
      <trkpt lat="47.45464" lon="-1.49852">
        <ele>24</ele>
        <time>2024-09-17T08:57:31Z</time>
      </trkpt>
      <trkpt lat="47.45481" lon="-1.49843">
        <ele>24</ele>
        <time>2024-09-17T08:57:43Z</time>
      </trkpt>
      <trkpt lat="47.455" lon="-1.49832">
        <ele>24</ele>
        <time>2024-09-17T08:57:59Z</time>
      </trkpt>
      <trkpt lat="47.45516" lon="-1.49818">
        <ele>24.99</ele>
        <time>2024-09-17T08:58:15Z</time>
      </trkpt>
      <trkpt lat="47.45532" lon="-1.49793">
        <ele>25</ele>
        <time>2024-09-17T08:58:39Z</time>
      </trkpt>
      <trkpt lat="47.45531" lon="-1.4976">
        <ele>25</ele>
        <time>2024-09-17T08:58:51Z</time>
      </trkpt>
      <trkpt lat="47.45528" lon="-1.49726">
        <ele>24.03</ele>
        <time>2024-09-17T08:59:07Z</time>
      </trkpt>
      <trkpt lat="47.45525" lon="-1.49696">
        <ele>24</ele>
        <time>2024-09-17T08:59:23Z</time>
      </trkpt>
      <trkpt lat="47.45523" lon="-1.49668">
        <ele>24</ele>
        <time>2024-09-17T08:59:39Z</time>
      </trkpt>
      <trkpt lat="47.45521" lon="-1.4964">
        <ele>24.99</ele>
        <time>2024-09-17T08:59:55Z</time>
      </trkpt>
      <trkpt lat="47.45521" lon="-1.4961">
        <ele>25</ele>
        <time>2024-09-17T09:00:11Z</time>
      </trkpt>
      <trkpt lat="47.45523" lon="-1.49581">
        <ele>24.3</ele>
        <time>2024-09-17T09:00:27Z</time>
      </trkpt>
      <trkpt lat="47.45525" lon="-1.49553">
        <ele>24</ele>
        <time>2024-09-17T09:00:43Z</time>
      </trkpt>
      <trkpt lat="47.45525" lon="-1.49524">
        <ele>24</ele>
        <time>2024-09-17T09:01:03Z</time>
      </trkpt>
      <trkpt lat="47.45529" lon="-1.49492">
        <ele>24</ele>
        <time>2024-09-17T09:01:23Z</time>
      </trkpt>
      <trkpt lat="47.45545" lon="-1.49481">
        <ele>24</ele>
        <time>2024-09-17T09:01:43Z</time>
      </trkpt>
      <trkpt lat="47.45565" lon="-1.49474">
        <ele>24</ele>
        <time>2024-09-17T09:01:59Z</time>
      </trkpt>
      <trkpt lat="47.45583" lon="-1.49467">
        <ele>24</ele>
        <time>2024-09-17T09:02:15Z</time>
      </trkpt>
      <trkpt lat="47.45605" lon="-1.49465">
        <ele>26</ele>
        <time>2024-09-17T09:02:35Z</time>
      </trkpt>
      <trkpt lat="47.45627" lon="-1.49457">
        <ele>26</ele>
        <time>2024-09-17T09:02:59Z</time>
      </trkpt>
      <trkpt lat="47.45648" lon="-1.4945">
        <ele>26</ele>
        <time>2024-09-17T09:03:19Z</time>
      </trkpt>
      <trkpt lat="47.4567" lon="-1.49444">
        <ele>26</ele>
        <time>2024-09-17T09:03:35Z</time>
      </trkpt>
      <trkpt lat="47.45683" lon="-1.49419">
        <ele>26</ele>
        <time>2024-09-17T09:04:07Z</time>
      </trkpt>
      <trkpt lat="47.45678" lon="-1.4939">
        <ele>26.99</ele>
        <time>2024-09-17T09:04:23Z</time>
      </trkpt>
      <trkpt lat="47.45669" lon="-1.49366">
        <ele>27</ele>
        <time>2024-09-17T09:04:39Z</time>
      </trkpt>
      <trkpt lat="47.45662" lon="-1.4934">
        <ele>26.03</ele>
        <time>2024-09-17T09:04:55Z</time>
      </trkpt>
      <trkpt lat="47.45657" lon="-1.49309">
        <ele>26.99</ele>
        <time>2024-09-17T09:05:11Z</time>
      </trkpt>
      <trkpt lat="47.45661" lon="-1.4928">
        <ele>27</ele>
        <time>2024-09-17T09:05:27Z</time>
      </trkpt>
      <trkpt lat="47.45667" lon="-1.4925">
        <ele>28.4</ele>
        <time>2024-09-17T09:05:43Z</time>
      </trkpt>
      <trkpt lat="47.45674" lon="-1.49219">
        <ele>29</ele>
        <time>2024-09-17T09:05:59Z</time>
      </trkpt>
      <trkpt lat="47.45656" lon="-1.49204">
        <ele>27.05</ele>
        <time>2024-09-17T09:06:27Z</time>
      </trkpt>
      <trkpt lat="47.45635" lon="-1.49204">
        <ele>27</ele>
        <time>2024-09-17T09:06:43Z</time>
      </trkpt>
      <trkpt lat="47.45615" lon="-1.49202">
        <ele>27</ele>
        <time>2024-09-17T09:06:59Z</time>
      </trkpt>
      <trkpt lat="47.45594" lon="-1.49204">
        <ele>27</ele>
        <time>2024-09-17T09:07:15Z</time>
      </trkpt>
      <trkpt lat="47.45577" lon="-1.49194">
        <ele>25.18</ele>
        <time>2024-09-17T09:07:31Z</time>
      </trkpt>
      <trkpt lat="47.4556" lon="-1.49179">
        <ele>25</ele>
        <time>2024-09-17T09:08:07Z</time>
      </trkpt>
      <trkpt lat="47.45544" lon="-1.49163">
        <ele>20.1</ele>
        <time>2024-09-17T09:08:23Z</time>
      </trkpt>
      <trkpt lat="47.45526" lon="-1.49152">
        <ele>18.01</ele>
        <time>2024-09-17T09:08:43Z</time>
      </trkpt>
      <trkpt lat="47.45504" lon="-1.49153">
        <ele>18</ele>
        <time>2024-09-17T09:09:03Z</time>
      </trkpt>
      <trkpt lat="47.45483" lon="-1.49157">
        <ele>18</ele>
        <time>2024-09-17T09:09:19Z</time>
      </trkpt>
      <trkpt lat="47.45465" lon="-1.49154">
        <ele>18</ele>
        <time>2024-09-17T09:09:51Z</time>
      </trkpt>
      <trkpt lat="47.45444" lon="-1.49157">
        <ele>18</ele>
        <time>2024-09-17T09:10:15Z</time>
      </trkpt>
      <trkpt lat="47.45426" lon="-1.49173">
        <ele>23.46</ele>
        <time>2024-09-17T09:10:35Z</time>
      </trkpt>
      <trkpt lat="47.45409" lon="-1.49186">
        <ele>23.03</ele>
        <time>2024-09-17T09:10:55Z</time>
      </trkpt>
      <trkpt lat="47.4539" lon="-1.49198">
        <ele>23</ele>
        <time>2024-09-17T09:11:15Z</time>
      </trkpt>
      <trkpt lat="47.45371" lon="-1.49204">
        <ele>23</ele>
        <time>2024-09-17T09:11:31Z</time>
      </trkpt>
      <trkpt lat="47.45349" lon="-1.49213">
        <ele>23</ele>
        <time>2024-09-17T09:11:51Z</time>
      </trkpt>
      <trkpt lat="47.45331" lon="-1.49217">
        <ele>23.7</ele>
        <time>2024-09-17T09:12:07Z</time>
      </trkpt>
      <trkpt lat="47.4531" lon="-1.49228">
        <ele>24</ele>
        <time>2024-09-17T09:12:27Z</time>
      </trkpt>
      <trkpt lat="47.45292" lon="-1.49238">
        <ele>24</ele>
        <time>2024-09-17T09:12:43Z</time>
      </trkpt>
      <trkpt lat="47.45277" lon="-1.49259">
        <ele>26.92</ele>
        <time>2024-09-17T09:13:03Z</time>
      </trkpt>
      <trkpt lat="47.45266" lon="-1.49285">
        <ele>27</ele>
        <time>2024-09-17T09:13:23Z</time>
      </trkpt>
      <trkpt lat="47.45254" lon="-1.49312">
        <ele>27</ele>
        <time>2024-09-17T09:13:43Z</time>
      </trkpt>
      <trkpt lat="47.4524" lon="-1.49331">
        <ele>27</ele>
        <time>2024-09-17T09:13:59Z</time>
      </trkpt>
      <trkpt lat="47.45222" lon="-1.49343">
        <ele>26.01</ele>
        <time>2024-09-17T09:14:15Z</time>
      </trkpt>
      <trkpt lat="47.45203" lon="-1.49348">
        <ele>26</ele>
        <time>2024-09-17T09:14:31Z</time>
      </trkpt>
      <trkpt lat="47.45183" lon="-1.49352">
        <ele>26</ele>
        <time>2024-09-17T09:14:47Z</time>
      </trkpt>
      <trkpt lat="47.45161" lon="-1.49352">
        <ele>27.82</ele>
        <time>2024-09-17T09:15:03Z</time>
      </trkpt>
      <trkpt lat="47.45141" lon="-1.49359">
        <ele>28</ele>
        <time>2024-09-17T09:15:19Z</time>
      </trkpt>
      <trkpt lat="47.45125" lon="-1.49376">
        <ele>28</ele>
        <time>2024-09-17T09:15:35Z</time>
      </trkpt>
      <trkpt lat="47.45118" lon="-1.49404">
        <ele>28</ele>
        <time>2024-09-17T09:15:51Z</time>
      </trkpt>
      <trkpt lat="47.45112" lon="-1.49433">
        <ele>27.03</ele>
        <time>2024-09-17T09:16:07Z</time>
      </trkpt>
      <trkpt lat="47.45105" lon="-1.49459">
        <ele>27</ele>
        <time>2024-09-17T09:16:23Z</time>
      </trkpt>
      <trkpt lat="47.45096" lon="-1.49485">
        <ele>27</ele>
        <time>2024-09-17T09:16:39Z</time>
      </trkpt>
      <trkpt lat="47.45085" lon="-1.49512">
        <ele>26.09</ele>
        <time>2024-09-17T09:16:55Z</time>
      </trkpt>
      <trkpt lat="47.45074" lon="-1.49542">
        <ele>26.99</ele>
        <time>2024-09-17T09:17:15Z</time>
      </trkpt>
      <trkpt lat="47.45064" lon="-1.49568">
        <ele>27</ele>
        <time>2024-09-17T09:17:31Z</time>
      </trkpt>
      <trkpt lat="47.45055" lon="-1.49592">
        <ele>26.09</ele>
        <time>2024-09-17T09:17:47Z</time>
      </trkpt>
      <trkpt lat="47.45045" lon="-1.49619">
        <ele>26</ele>
        <time>2024-09-17T09:18:03Z</time>
      </trkpt>
      <trkpt lat="47.45065" lon="-1.49622">
        <ele>26</ele>
        <time>2024-09-17T09:18:23Z</time>
      </trkpt>
      <trkpt lat="47.45088" lon="-1.49621">
        <ele>25.3</ele>
        <time>2024-09-17T09:18:43Z</time>
      </trkpt>
      <trkpt lat="47.45108" lon="-1.49623">
        <ele>25</ele>
        <time>2024-09-17T09:18:59Z</time>
      </trkpt>
      <trkpt lat="47.45129" lon="-1.49625">
        <ele>25</ele>
        <time>2024-09-17T09:19:15Z</time>
      </trkpt>
      <trkpt lat="47.45151" lon="-1.49627">
        <ele>25</ele>
        <time>2024-09-17T09:19:35Z</time>
      </trkpt>
      <trkpt lat="47.45173" lon="-1.49624">
        <ele>23.18</ele>
        <time>2024-09-17T09:19:55Z</time>
      </trkpt>
      <trkpt lat="47.45189" lon="-1.4964">
        <ele>23</ele>
        <time>2024-09-17T09:20:31Z</time>
      </trkpt>
      <trkpt lat="47.45203" lon="-1.49664">
        <ele>23</ele>
        <time>2024-09-17T09:21:28Z</time>
      </trkpt>
      <trkpt lat="47.45199" lon="-1.4969">
        <ele>21</ele>
        <time>2024-09-17T09:21:52Z</time>
      </trkpt>
      <trkpt lat="47.45188" lon="-1.49716">
        <ele>21</ele>
        <time>2024-09-17T09:22:08Z</time>
      </trkpt>
      <trkpt lat="47.45177" lon="-1.49745">
        <ele>21</ele>
        <time>2024-09-17T09:22:26Z</time>
      </trkpt>
      <trkpt lat="47.45168" lon="-1.4977">
        <ele>21</ele>
        <time>2024-09-17T09:22:42Z</time>
      </trkpt>
      <trkpt lat="47.45158" lon="-1.49795">
        <ele>22.98</ele>
        <time>2024-09-17T09:22:58Z</time>
      </trkpt>
      <trkpt lat="47.4514" lon="-1.49816">
        <ele>23</ele>
        <time>2024-09-17T09:23:18Z</time>
      </trkpt>
      <trkpt lat="47.45124" lon="-1.49832">
        <ele>23</ele>
        <time>2024-09-17T09:23:34Z</time>
      </trkpt>
      <trkpt lat="47.45112" lon="-1.49859">
        <ele>22</ele>
        <time>2024-09-17T09:23:54Z</time>
      </trkpt>
      <trkpt lat="47.45108" lon="-1.49886">
        <ele>22</ele>
        <time>2024-09-17T09:24:10Z</time>
      </trkpt>
      <trkpt lat="47.45108" lon="-1.49917">
        <ele>22</ele>
        <time>2024-09-17T09:24:26Z</time>
      </trkpt>
      <trkpt lat="47.45105" lon="-1.49945">
        <ele>21.01</ele>
        <time>2024-09-17T09:24:42Z</time>
      </trkpt>
      <trkpt lat="47.45103" lon="-1.49975">
        <ele>21</ele>
        <time>2024-09-17T09:24:58Z</time>
      </trkpt>
      <trkpt lat="47.451" lon="-1.50003">
        <ele>20.3</ele>
        <time>2024-09-17T09:25:14Z</time>
      </trkpt>
      <trkpt lat="47.45101" lon="-1.50036">
        <ele>20</ele>
        <time>2024-09-17T09:25:34Z</time>
      </trkpt>
      <trkpt lat="47.45095" lon="-1.50009">
        <ele>20</ele>
        <time>2024-09-17T09:26:14Z</time>
      </trkpt>
      <trkpt lat="47.45098" lon="-1.50034">
        <ele>20</ele>
        <time>2024-09-17T09:27:30Z</time>
      </trkpt>
      <trkpt lat="47.44906" lon="-1.50144">
        <ele>27</ele>
      </trkpt>
      <trkpt lat="47.44858" lon="-1.50135">
        <ele>25.9</ele>
      </trkpt>
      <trkpt lat="47.44859" lon="-1.50361">
        <ele>20.02</ele>
        <time>2024-09-17T09:39:59Z</time>
      </trkpt>
      <trkpt lat="47.44718" lon="-1.50373">
        <ele>20</ele>
        <time>2024-09-17T09:42:07Z</time>
      </trkpt>
      <trkpt lat="47.44696" lon="-1.50378">
        <ele>20</ele>
        <time>2024-09-17T09:42:27Z</time>
      </trkpt>
      <trkpt lat="47.44674" lon="-1.50381">
        <ele>20</ele>
        <time>2024-09-17T09:42:43Z</time>
      </trkpt>
      <trkpt lat="47.44655" lon="-1.50384">
        <ele>17.02</ele>
        <time>2024-09-17T09:43:03Z</time>
      </trkpt>
      <trkpt lat="47.44633" lon="-1.50389">
        <ele>17</ele>
        <time>2024-09-17T09:43:19Z</time>
      </trkpt>
      <trkpt lat="47.44613" lon="-1.50393">
        <ele>17</ele>
        <time>2024-09-17T09:43:35Z</time>
      </trkpt>
      <trkpt lat="47.44592" lon="-1.50398">
        <ele>17</ele>
        <time>2024-09-17T09:43:51Z</time>
      </trkpt>
      <trkpt lat="47.44571" lon="-1.50406">
        <ele>14.08</ele>
        <time>2024-09-17T09:44:11Z</time>
      </trkpt>
      <trkpt lat="47.44551" lon="-1.50416">
        <ele>14</ele>
        <time>2024-09-17T09:44:27Z</time>
      </trkpt>
      <trkpt lat="47.44529" lon="-1.50422">
        <ele>12</ele>
        <time>2024-09-17T09:44:47Z</time>
      </trkpt>
      <trkpt lat="47.4451" lon="-1.50428">
        <ele>12</ele>
        <time>2024-09-17T09:45:35Z</time>
      </trkpt>
      <trkpt lat="47.4449" lon="-1.50434">
        <ele>11.09</ele>
        <time>2024-09-17T09:45:55Z</time>
      </trkpt>
      <trkpt lat="47.44469" lon="-1.50438">
        <ele>11</ele>
        <time>2024-09-17T09:46:11Z</time>
      </trkpt>
      <trkpt lat="47.44448" lon="-1.50444">
        <ele>11</ele>
        <time>2024-09-17T09:46:27Z</time>
      </trkpt>
      <trkpt lat="47.44427" lon="-1.5045">
        <ele>11</ele>
        <time>2024-09-17T09:46:43Z</time>
      </trkpt>
      <trkpt lat="47.44405" lon="-1.50458">
        <ele>14.89</ele>
        <time>2024-09-17T09:47:03Z</time>
      </trkpt>
      <trkpt lat="47.44386" lon="-1.50464">
        <ele>15</ele>
        <time>2024-09-17T09:47:19Z</time>
      </trkpt>
      <trkpt lat="47.44366" lon="-1.50463">
        <ele>15</ele>
        <time>2024-09-17T09:47:35Z</time>
      </trkpt>
      <trkpt lat="47.44346" lon="-1.5046">
        <ele>15</ele>
        <time>2024-09-17T09:47:51Z</time>
      </trkpt>
      <trkpt lat="47.44328" lon="-1.50459">
        <ele>15</ele>
        <time>2024-09-17T09:48:07Z</time>
      </trkpt>
      <trkpt lat="47.4431" lon="-1.50459">
        <ele>15</ele>
        <time>2024-09-17T09:48:23Z</time>
      </trkpt>
      <trkpt lat="47.4429" lon="-1.50458">
        <ele>15</ele>
        <time>2024-09-17T09:48:39Z</time>
      </trkpt>
      <trkpt lat="47.44271" lon="-1.5046">
        <ele>15</ele>
        <time>2024-09-17T09:48:59Z</time>
      </trkpt>
      <trkpt lat="47.44249" lon="-1.50458">
        <ele>13.6</ele>
        <time>2024-09-17T09:49:19Z</time>
      </trkpt>
      <trkpt lat="47.44228" lon="-1.50453">
        <ele>13</ele>
        <time>2024-09-17T09:49:35Z</time>
      </trkpt>
      <trkpt lat="47.44207" lon="-1.50443">
        <ele>13</ele>
        <time>2024-09-17T09:49:51Z</time>
      </trkpt>
      <trkpt lat="47.4419" lon="-1.50434">
        <ele>13</ele>
        <time>2024-09-17T09:50:07Z</time>
      </trkpt>
      <trkpt lat="47.44169" lon="-1.50427">
        <ele>13</ele>
        <time>2024-09-17T09:50:23Z</time>
      </trkpt>
      <trkpt lat="47.44148" lon="-1.50416">
        <ele>14.1</ele>
        <time>2024-09-17T09:50:43Z</time>
      </trkpt>
      <trkpt lat="47.44126" lon="-1.50406">
        <ele>14.99</ele>
        <time>2024-09-17T09:50:59Z</time>
      </trkpt>
      <trkpt lat="47.44106" lon="-1.50397">
        <ele>15</ele>
        <time>2024-09-17T09:51:15Z</time>
      </trkpt>
      <trkpt lat="47.44087" lon="-1.50388">
        <ele>15</ele>
        <time>2024-09-17T09:51:31Z</time>
      </trkpt>
      <trkpt lat="47.44067" lon="-1.50386">
        <ele>15</ele>
        <time>2024-09-17T09:51:47Z</time>
      </trkpt>
      <trkpt lat="47.44048" lon="-1.50383">
        <ele>15</ele>
        <time>2024-09-17T09:52:03Z</time>
      </trkpt>
      <trkpt lat="47.44028" lon="-1.50379">
        <ele>15</ele>
        <time>2024-09-17T09:52:19Z</time>
      </trkpt>
      <trkpt lat="47.4401" lon="-1.50399">
        <ele>15</ele>
        <time>2024-09-17T09:52:51Z</time>
      </trkpt>
      <trkpt lat="47.44013" lon="-1.50429">
        <ele>13.05</ele>
        <time>2024-09-17T09:53:11Z</time>
      </trkpt>
      <trkpt lat="47.44021" lon="-1.50457">
        <ele>13</ele>
        <time>2024-09-17T09:53:27Z</time>
      </trkpt>
      <trkpt lat="47.44002" lon="-1.50468">
        <ele>13</ele>
        <time>2024-09-17T09:53:55Z</time>
      </trkpt>
      <trkpt lat="47.43984" lon="-1.5047">
        <ele>17.86</ele>
        <time>2024-09-17T09:54:07Z</time>
      </trkpt>
      <trkpt lat="47.43965" lon="-1.50473">
        <ele>18</ele>
        <time>2024-09-17T09:54:23Z</time>
      </trkpt>
      <trkpt lat="47.43945" lon="-1.50477">
        <ele>18</ele>
        <time>2024-09-17T09:54:39Z</time>
      </trkpt>
      <trkpt lat="47.43923" lon="-1.5048">
        <ele>18</ele>
        <time>2024-09-17T09:54:55Z</time>
      </trkpt>
      <trkpt lat="47.43903" lon="-1.50487">
        <ele>20.92</ele>
        <time>2024-09-17T09:55:11Z</time>
      </trkpt>
      <trkpt lat="47.43885" lon="-1.50493">
        <ele>21</ele>
        <time>2024-09-17T09:55:27Z</time>
      </trkpt>
      <trkpt lat="47.43866" lon="-1.50503">
        <ele>21</ele>
        <time>2024-09-17T09:55:43Z</time>
      </trkpt>
      <trkpt lat="47.43847" lon="-1.50496">
        <ele>21</ele>
        <time>2024-09-17T09:55:59Z</time>
      </trkpt>
      <trkpt lat="47.43834" lon="-1.50476">
        <ele>21</ele>
        <time>2024-09-17T09:56:11Z</time>
      </trkpt>
      <trkpt lat="47.43815" lon="-1.50473">
        <ele>15.01</ele>
        <time>2024-09-17T09:56:31Z</time>
      </trkpt>
      <trkpt lat="47.43799" lon="-1.50495">
        <ele>15</ele>
        <time>2024-09-17T09:56:47Z</time>
      </trkpt>
      <trkpt lat="47.4378" lon="-1.50497">
        <ele>14.94</ele>
        <time>2024-09-17T09:57:03Z</time>
      </trkpt>
      <trkpt lat="47.43773" lon="-1.50468">
        <ele>15</ele>
        <time>2024-09-17T09:57:19Z</time>
      </trkpt>
      <trkpt lat="47.43758" lon="-1.50452">
        <ele>15</ele>
        <time>2024-09-17T09:57:35Z</time>
      </trkpt>
      <trkpt lat="47.43743" lon="-1.50431">
        <ele>11.11</ele>
        <time>2024-09-17T09:57:55Z</time>
      </trkpt>
      <trkpt lat="47.43727" lon="-1.50409">
        <ele>13.1</ele>
        <time>2024-09-17T09:58:11Z</time>
      </trkpt>
      <trkpt lat="47.43734" lon="-1.50379">
        <ele>13.99</ele>
        <time>2024-09-17T09:58:27Z</time>
      </trkpt>
      <trkpt lat="47.43744" lon="-1.50355">
        <ele>14</ele>
        <time>2024-09-17T09:58:43Z</time>
      </trkpt>
      <trkpt lat="47.43751" lon="-1.50305">
        <ele>14.97</ele>
        <time>2024-09-17T09:59:56Z</time>
      </trkpt>
      <trkpt lat="47.43753" lon="-1.50276">
        <ele>14.42</ele>
        <time>2024-09-17T10:00:16Z</time>
      </trkpt>
      <trkpt lat="47.43759" lon="-1.50246">
        <ele>14.3</ele>
        <time>2024-09-17T10:00:32Z</time>
      </trkpt>
      <trkpt lat="47.43766" lon="-1.50219">
        <ele>14</ele>
        <time>2024-09-17T10:00:48Z</time>
      </trkpt>
      <trkpt lat="47.43773" lon="-1.5019">
        <ele>14</ele>
        <time>2024-09-17T10:01:08Z</time>
      </trkpt>
      <trkpt lat="47.43774" lon="-1.50162">
        <ele>14</ele>
        <time>2024-09-17T10:01:25Z</time>
      </trkpt>
      <trkpt lat="47.4377" lon="-1.50132">
        <ele>14</ele>
        <time>2024-09-17T10:01:42Z</time>
      </trkpt>
      <trkpt lat="47.4376" lon="-1.50102">
        <ele>14</ele>
        <time>2024-09-17T10:02:02Z</time>
      </trkpt>
      <trkpt lat="47.43745" lon="-1.50087">
        <ele>13.09</ele>
        <time>2024-09-17T10:02:39Z</time>
      </trkpt>
    </trkseg>
  </trk>
</gpx>